sensor_id;sensor_type;location;lat;lon;timestamp;pressure;altitude;pressure_sealevel;temperature;humidity
56894;BME280;43392;50.078;13.704;2023-03-13T00:02:17;96408.22;;;5.48;95.37
56894;BME280;43392;50.078;13.704;2023-03-13T00:04:44;96405.34;;;5.50;95.19
56894;BME280;43392;50.078;13.704;2023-03-13T00:07:12;96416.50;;;5.52;95.11
56894;BME280;43392;50.078;13.704;2023-03-13T00:09:38;96419.72;;;5.54;95.01
56894;BME280;43392;50.078;13.704;2023-03-13T00:12:05;96418.13;;;5.58;94.92
56894;BME280;43392;50.078;13.704;2023-03-13T00:14:32;96416.00;;;5.60;94.77
56894;BME280;43392;50.078;13.704;2023-03-13T00:16:59;96412.31;;;5.61;95.08
56894;BME280;43392;50.078;13.704;2023-03-13T00:19:27;96415.50;;;5.63;94.79
56894;BME280;43392;50.078;13.704;2023-03-13T00:21:53;96408.84;;;5.60;94.55
56894;BME280;43392;50.078;13.704;2023-03-13T00:24:21;96413.38;;;5.65;94.56
56894;BME280;43392;50.078;13.704;2023-03-13T00:26:48;96408.88;;;5.65;94.62
56894;BME280;43392;50.078;13.704;2023-03-13T00:29:14;96404.88;;;5.63;94.65
56894;BME280;43392;50.078;13.704;2023-03-13T00:31:41;96409.69;;;5.66;94.62
56894;BME280;43392;50.078;13.704;2023-03-13T00:34:08;96403.03;;;5.68;94.58
56894;BME280;43392;50.078;13.704;2023-03-13T00:36:35;96390.56;;;5.69;94.41
56894;BME280;43392;50.078;13.704;2023-03-13T00:39:03;96392.13;;;5.70;94.47
56894;BME280;43392;50.078;13.704;2023-03-13T00:41:32;96390.28;;;5.70;94.46
56894;BME280;43392;50.078;13.704;2023-03-13T00:43:58;96384.97;;;5.70;94.25
56894;BME280;43392;50.078;13.704;2023-03-13T00:46:26;96389.75;;;5.68;94.72
56894;BME280;43392;50.078;13.704;2023-03-13T00:48:53;96384.66;;;5.67;94.17
56894;BME280;43392;50.078;13.704;2023-03-13T00:51:21;96386.53;;;5.66;94.29
56894;BME280;43392;50.078;13.704;2023-03-13T00:53:48;96387.59;;;5.65;94.54
56894;BME280;43392;50.078;13.704;2023-03-13T00:56:16;96385.75;;;5.66;94.44
56894;BME280;43392;50.078;13.704;2023-03-13T00:58:46;96384.13;;;5.65;94.45
56894;BME280;43392;50.078;13.704;2023-03-13T01:01:14;96387.88;;;5.69;94.45
56894;BME280;43392;50.078;13.704;2023-03-13T01:03:43;96382.81;;;5.67;94.29
56894;BME280;43392;50.078;13.704;2023-03-13T01:06:13;96375.09;;;5.66;94.30
56894;BME280;43392;50.078;13.704;2023-03-13T01:08:40;96371.63;;;5.65;94.51
56894;BME280;43392;50.078;13.704;2023-03-13T01:11:08;96372.72;;;5.64;94.30
56894;BME280;43392;50.078;13.704;2023-03-13T01:13:35;96367.63;;;5.63;94.32
56894;BME280;43392;50.078;13.704;2023-03-13T01:16:06;96359.13;;;5.61;94.18
56894;BME280;43392;50.078;13.704;2023-03-13T01:18:33;96367.34;;;5.59;94.53
56894;BME280;43392;50.078;13.704;2023-03-13T01:21:01;96362.25;;;5.53;94.55
56894;BME280;43392;50.078;13.704;2023-03-13T01:23:27;96360.13;;;5.55;94.63
56894;BME280;43392;50.078;13.704;2023-03-13T01:25:54;96355.09;;;5.53;94.78
56894;BME280;43392;50.078;13.704;2023-03-13T01:28:22;96350.81;;;5.47;94.65
56894;BME280;43392;50.078;13.704;2023-03-13T01:30:49;96354.53;;;5.51;94.78
56894;BME280;43392;50.078;13.704;2023-03-13T01:33:17;96351.34;;;5.49;94.60
56894;BME280;43392;50.078;13.704;2023-03-13T01:35:44;96349.72;;;5.48;94.54
56894;BME280;43392;50.078;13.704;2023-03-13T01:38:11;96345.19;;;5.44;94.77
56894;BME280;43392;50.078;13.704;2023-03-13T01:40:39;96345.72;;;5.46;94.87
56894;BME280;43392;50.078;13.704;2023-03-13T01:43:14;96348.38;;;5.46;94.99
56894;BME280;43392;50.078;13.704;2023-03-13T01:46:10;96344.41;;;5.48;95.13
56894;BME280;43392;50.078;13.704;2023-03-13T01:48:43;96341.53;;;5.50;94.87
56894;BME280;43392;50.078;13.704;2023-03-13T01:51:14;96335.66;;;5.53;94.96
56894;BME280;43392;50.078;13.704;2023-03-13T01:53:44;96332.75;;;5.54;95.15
56894;BME280;43392;50.078;13.704;2023-03-13T01:56:14;96338.34;;;5.58;94.98
56894;BME280;43392;50.078;13.704;2023-03-13T01:58:42;96336.75;;;5.57;95.00
56894;BME280;43392;50.078;13.704;2023-03-13T02:01:10;96340.78;;;5.59;94.66
56894;BME280;43392;50.078;13.704;2023-03-13T02:03:38;96350.31;;;5.60;94.99
56894;BME280;43392;50.078;13.704;2023-03-13T02:06:07;96339.44;;;5.62;94.74
56894;BME280;43392;50.078;13.704;2023-03-13T02:08:37;96339.19;;;5.63;94.71
56894;BME280;43392;50.078;13.704;2023-03-13T02:11:12;96340.53;;;5.66;94.87
56894;BME280;43392;50.078;13.704;2023-03-13T02:13:41;96337.59;;;5.67;94.92
56894;BME280;43392;50.078;13.704;2023-03-13T02:16:09;96339.22;;;5.68;94.71
56894;BME280;43392;50.078;13.704;2023-03-13T02:18:36;96331.75;;;5.65;94.59
56894;BME280;43392;50.078;13.704;2023-03-13T02:21:10;96343.22;;;5.71;94.80
56894;BME280;43392;50.078;13.704;2023-03-13T02:23:45;96328.84;;;5.72;94.58
56894;BME280;43392;50.078;13.704;2023-03-13T02:26:16;96328.06;;;5.71;94.44
56894;BME280;43392;50.078;13.704;2023-03-13T02:28:43;96319.81;;;5.73;94.36
56894;BME280;43392;50.078;13.704;2023-03-13T02:31:09;96312.09;;;5.71;94.54
56894;BME280;43392;50.078;13.704;2023-03-13T02:33:38;96316.59;;;5.71;94.42
56894;BME280;43392;50.078;13.704;2023-03-13T02:36:07;96312.88;;;5.72;94.28
56894;BME280;43392;50.078;13.704;2023-03-13T02:38:35;96307.56;;;5.72;94.39
56894;BME280;43392;50.078;13.704;2023-03-13T02:41:04;96306.50;;;5.73;94.39
56894;BME280;43392;50.078;13.704;2023-03-13T02:43:33;96289.19;;;5.70;94.42
56894;BME280;43392;50.078;13.704;2023-03-13T02:46:06;96299.34;;;5.73;94.02
56894;BME280;43392;50.078;13.704;2023-03-13T02:48:36;96292.41;;;5.72;94.34
56894;BME280;43392;50.078;13.704;2023-03-13T02:51:05;96294.25;;;5.72;94.41
56894;BME280;43392;50.078;13.704;2023-03-13T02:53:34;96288.69;;;5.73;94.35
56894;BME280;43392;50.078;13.704;2023-03-13T02:56:01;96296.41;;;5.75;94.51
56894;BME280;43392;50.078;13.704;2023-03-13T02:58:40;96294.28;;;5.77;94.20
56894;BME280;43392;50.078;13.704;2023-03-13T03:01:07;96302.25;;;5.77;94.63
56894;BME280;43392;50.078;13.704;2023-03-13T03:03:34;96298.53;;;5.78;94.40
56894;BME280;43392;50.078;13.704;2023-03-13T03:06:02;96296.69;;;5.78;94.23
56894;BME280;43392;50.078;13.704;2023-03-13T03:08:29;96290.56;;;5.78;94.37
56894;BME280;43392;50.078;13.704;2023-03-13T03:10:56;96282.31;;;5.79;94.13
56894;BME280;43392;50.078;13.704;2023-03-13T03:13:23;96271.41;;;5.76;94.37
56894;BME280;43392;50.078;13.704;2023-03-13T03:15:51;96279.41;;;5.81;94.37
56894;BME280;43392;50.078;13.704;2023-03-13T03:18:17;96283.91;;;5.80;94.33
56894;BME280;43392;50.078;13.704;2023-03-13T03:20:44;96276.75;;;5.81;94.34
56894;BME280;43392;50.078;13.704;2023-03-13T03:23:10;96265.84;;;5.82;94.04
56894;BME280;43392;50.078;13.704;2023-03-13T03:25:37;96271.97;;;5.83;94.18
56894;BME280;43392;50.078;13.704;2023-03-13T03:28:04;96274.63;;;5.83;94.02
56894;BME280;43392;50.078;13.704;2023-03-13T03:30:31;96263.97;;;5.83;94.22
56894;BME280;43392;50.078;13.704;2023-03-13T03:32:58;96263.72;;;5.84;94.21
56894;BME280;43392;50.078;13.704;2023-03-13T03:35:27;96269.06;;;5.84;94.18
56894;BME280;43392;50.078;13.704;2023-03-13T03:37:54;96265.84;;;5.82;94.12
56894;BME280;43392;50.078;13.704;2023-03-13T03:40:20;96252.00;;;5.80;93.85
56894;BME280;43392;50.078;13.704;2023-03-13T03:42:47;96253.34;;;5.83;94.03
56894;BME280;43392;50.078;13.704;2023-03-13T03:45:13;96250.91;;;5.81;94.35
56894;BME280;43392;50.078;13.704;2023-03-13T03:47:40;96249.06;;;5.82;94.11
56894;BME280;43392;50.078;13.704;2023-03-13T03:50:09;96238.44;;;5.82;93.96
56894;BME280;43392;50.078;13.704;2023-03-13T03:52:36;96229.63;;;5.81;93.95
56894;BME280;43392;50.078;13.704;2023-03-13T03:55:04;96243.22;;;5.80;94.12
56894;BME280;43392;50.078;13.704;2023-03-13T03:57:30;96245.88;;;5.80;94.19
56894;BME280;43392;50.078;13.704;2023-03-13T03:59:57;96239.22;;;5.82;94.13
56894;BME280;43392;50.078;13.704;2023-03-13T04:02:23;96237.38;;;5.83;94.10
56894;BME280;43392;50.078;13.704;2023-03-13T04:04:50;96230.97;;;5.84;94.05
56894;BME280;43392;50.078;13.704;2023-03-13T04:07:18;96231.56;;;5.86;93.83
56894;BME280;43392;50.078;13.704;2023-03-13T04:09:44;96231.03;;;5.89;93.90
56894;BME280;43392;50.078;13.704;2023-03-13T04:12:11;96208.16;;;5.88;93.84
56894;BME280;43392;50.078;13.704;2023-03-13T04:14:38;96210.28;;;5.91;93.74
56894;BME280;43392;50.078;13.704;2023-03-13T04:17:04;96204.16;;;5.90;93.94
56894;BME280;43392;50.078;13.704;2023-03-13T04:19:31;96204.41;;;5.89;93.65
56894;BME280;43392;50.078;13.704;2023-03-13T04:21:57;96198.84;;;5.90;93.86
56894;BME280;43392;50.078;13.704;2023-03-13T04:24:25;96207.63;;;5.91;93.53
56894;BME280;43392;50.078;13.704;2023-03-13T04:26:52;96205.22;;;5.89;93.44
56894;BME280;43392;50.078;13.704;2023-03-13T04:29:19;96208.16;;;5.88;93.51
56894;BME280;43392;50.078;13.704;2023-03-13T04:31:46;96206.28;;;5.88;93.26
56894;BME280;43392;50.078;13.704;2023-03-13T04:34:12;96209.72;;;5.89;93.42
56894;BME280;43392;50.078;13.704;2023-03-13T04:36:39;96210.53;;;5.89;93.28
56894;BME280;43392;50.078;13.704;2023-03-13T04:39:05;96202.56;;;5.89;93.15
56894;BME280;43392;50.078;13.704;2023-03-13T04:41:33;96208.16;;;5.88;93.21
56894;BME280;43392;50.078;13.704;2023-03-13T04:44:00;96194.00;;;5.82;93.40
56894;BME280;43392;50.078;13.704;2023-03-13T04:46:27;96194.84;;;5.88;92.85
56894;BME280;43392;50.078;13.704;2023-03-13T04:48:53;96199.38;;;5.87;93.09
56894;BME280;43392;50.078;13.704;2023-03-13T04:51:20;96196.69;;;5.87;93.39
56894;BME280;43392;50.078;13.704;2023-03-13T04:53:46;96196.44;;;5.89;93.14
56894;BME280;43392;50.078;13.704;2023-03-13T04:56:20;96191.09;;;5.89;93.07
56894;BME280;43392;50.078;13.704;2023-03-13T04:58:48;96188.19;;;5.90;93.18
56894;BME280;43392;50.078;13.704;2023-03-13T05:01:15;96185.53;;;5.90;93.08
56894;BME280;43392;50.078;13.704;2023-03-13T05:03:42;96194.31;;;5.91;93.00
56894;BME280;43392;50.078;13.704;2023-03-13T05:06:08;96187.13;;;5.91;93.02
56894;BME280;43392;50.078;13.704;2023-03-13T05:08:35;96181.56;;;5.93;93.14
56894;BME280;43392;50.078;13.704;2023-03-13T05:11:02;96174.91;;;5.95;92.89
56894;BME280;43392;50.078;13.704;2023-03-13T05:13:29;96160.28;;;5.98;92.78
56894;BME280;43392;50.078;13.704;2023-03-13T05:15:57;96149.34;;;5.99;92.93
56894;BME280;43392;50.078;13.704;2023-03-13T05:18:24;96144.84;;;6.00;92.50
56894;BME280;43392;50.078;13.704;2023-03-13T05:20:50;96151.72;;;6.01;92.73
56894;BME280;43392;50.078;13.704;2023-03-13T05:23:17;96148.81;;;6.03;92.75
56894;BME280;43392;50.078;13.704;2023-03-13T05:25:44;96136.06;;;6.05;92.94
56894;BME280;43392;50.078;13.704;2023-03-13T05:28:10;96125.41;;;6.05;92.58
56894;BME280;43392;50.078;13.704;2023-03-13T05:30:37;96126.72;;;6.07;92.54
56894;BME280;43392;50.078;13.704;2023-03-13T05:33:05;96128.06;;;6.10;92.32
56894;BME280;43392;50.078;13.704;2023-03-13T05:35:31;96125.13;;;6.11;92.53
56894;BME280;43392;50.078;13.704;2023-03-13T05:37:58;96108.63;;;6.14;92.56
56894;BME280;43392;50.078;13.704;2023-03-13T05:40:24;96115.28;;;6.17;92.56
56894;BME280;43392;50.078;13.704;2023-03-13T05:42:51;96114.75;;;6.20;92.43
56894;BME280;43392;50.078;13.704;2023-03-13T05:45:17;96112.63;;;6.22;92.21
56894;BME280;43392;50.078;13.704;2023-03-13T05:47:44;96114.75;;;6.25;92.40
56894;BME280;43392;50.078;13.704;2023-03-13T05:50:12;96105.44;;;6.22;91.94
56894;BME280;43392;50.078;13.704;2023-03-13T05:52:39;96110.75;;;6.27;91.89
56894;BME280;43392;50.078;13.704;2023-03-13T05:55:06;96113.13;;;6.29;92.04
56894;BME280;43392;50.078;13.704;2023-03-13T05:57:33;96116.31;;;6.31;91.92
56894;BME280;43392;50.078;13.704;2023-03-13T05:59:59;96117.94;;;6.32;92.05
56894;BME280;43392;50.078;13.704;2023-03-13T06:02:26;96122.69;;;6.35;92.07
56894;BME280;43392;50.078;13.704;2023-03-13T06:04:53;96121.66;;;6.36;91.78
56894;BME280;43392;50.078;13.704;2023-03-13T06:07:21;96109.66;;;6.38;91.85
56894;BME280;43392;50.078;13.704;2023-03-13T06:09:48;96126.16;;;6.40;91.87
56894;BME280;43392;50.078;13.704;2023-03-13T06:12:15;96123.78;;;6.44;91.71
56894;BME280;43392;50.078;13.704;2023-03-13T06:14:42;96123.22;;;6.47;91.91
56894;BME280;43392;50.078;13.704;2023-03-13T06:17:09;96114.69;;;6.50;91.52
56894;BME280;43392;50.078;13.704;2023-03-13T06:19:35;96107.78;;;6.54;91.44
56894;BME280;43392;50.078;13.704;2023-03-13T06:22:02;96109.63;;;6.58;91.71
56894;BME280;43392;50.078;13.704;2023-03-13T06:24:30;96113.63;;;6.61;91.25
56894;BME280;43392;50.078;13.704;2023-03-13T06:26:57;96106.41;;;6.61;91.36
56894;BME280;43392;50.078;13.704;2023-03-13T06:29:24;96091.22;;;6.62;91.16
56894;BME280;43392;50.078;13.704;2023-03-13T06:31:50;96093.63;;;6.63;91.35
56894;BME280;43392;50.078;13.704;2023-03-13T06:34:17;96097.63;;;6.66;91.37
56894;BME280;43392;50.078;13.704;2023-03-13T06:36:44;96090.41;;;6.66;91.14
56894;BME280;43392;50.078;13.704;2023-03-13T06:39:11;96087.47;;;6.68;91.38
56894;BME280;43392;50.078;13.704;2023-03-13T06:41:39;96075.50;;;6.71;91.21
56894;BME280;43392;50.078;13.704;2023-03-13T06:44:06;96074.41;;;6.72;91.16
56894;BME280;43392;50.078;13.704;2023-03-13T06:46:32;96072.00;;;6.75;91.28
56894;BME280;43392;50.078;13.704;2023-03-13T06:48:59;96073.34;;;6.78;91.12
56894;BME280;43392;50.078;13.704;2023-03-13T06:51:29;96064.75;;;6.81;90.89
56894;BME280;43392;50.078;13.704;2023-03-13T06:53:55;96064.75;;;6.86;90.72
56894;BME280;43392;50.078;13.704;2023-03-13T06:56:22;96069.53;;;6.89;90.71
56894;BME280;43392;50.078;13.704;2023-03-13T06:58:50;96059.16;;;6.92;90.39
56894;BME280;43392;50.078;13.704;2023-03-13T07:01:17;96055.91;;;6.95;90.12
56894;BME280;43392;50.078;13.704;2023-03-13T07:03:43;96053.00;;;6.97;90.18
56894;BME280;43392;50.078;13.704;2023-03-13T07:06:10;96057.78;;;7.00;89.98
56894;BME280;43392;50.078;13.704;2023-03-13T07:08:37;96058.00;;;7.03;89.94
56894;BME280;43392;50.078;13.704;2023-03-13T07:11:07;96061.19;;;7.05;89.74
56894;BME280;43392;50.078;13.704;2023-03-13T07:13:34;96044.66;;;7.08;89.77
56894;BME280;43392;50.078;13.704;2023-03-13T07:16:04;96057.44;;;7.11;89.73
56894;BME280;43392;50.078;13.704;2023-03-13T07:18:32;96053.94;;;7.16;89.51
56894;BME280;43392;50.078;13.704;2023-03-13T07:21:00;96040.84;;;7.19;89.51
56894;BME280;43392;50.078;13.704;2023-03-13T07:23:29;96038.19;;;7.19;89.43
56894;BME280;43392;50.078;13.704;2023-03-13T07:25:57;96029.13;;;7.20;89.24
56894;BME280;43392;50.078;13.704;2023-03-13T07:28:25;96044.03;;;7.26;89.29
56894;BME280;43392;50.078;13.704;2023-03-13T07:30:52;96039.22;;;7.28;89.25
56894;BME280;43392;50.078;13.704;2023-03-13T07:33:20;96033.03;;;7.33;89.09
56894;BME280;43392;50.078;13.704;2023-03-13T07:35:47;96032.69;;;7.45;88.71
56894;BME280;43392;50.078;13.704;2023-03-13T07:38:14;96028.28;;;7.64;90.16
56894;BME280;43392;50.078;13.704;2023-03-13T07:40:47;96028.84;;;8.47;88.43
56894;BME280;43392;50.078;13.704;2023-03-13T07:43:14;96021.38;;;9.28;85.28
56894;BME280;43392;50.078;13.704;2023-03-13T07:45:49;96009.84;;;9.65;81.10
56894;BME280;43392;50.078;13.704;2023-03-13T07:48:16;96005.25;;;9.33;80.48
56894;BME280;43392;50.078;13.704;2023-03-13T07:50:44;96008.78;;;8.92;81.51
56894;BME280;43392;50.078;13.704;2023-03-13T07:53:11;96015.66;;;8.55;83.00
56894;BME280;43392;50.078;13.704;2023-03-13T07:55:38;96009.81;;;8.30;84.23
56894;BME280;43392;50.078;13.704;2023-03-13T07:58:04;96007.25;;;8.15;84.93
56894;BME280;43392;50.078;13.704;2023-03-13T08:00:31;96008.16;;;8.05;85.33
56894;BME280;43392;50.078;13.704;2023-03-13T08:02:57;96002.31;;;8.03;85.88
56894;BME280;43392;50.078;13.704;2023-03-13T08:05:24;95988.41;;;8.06;85.71
56894;BME280;43392;50.078;13.704;2023-03-13T08:07:52;95997.44;;;8.10;85.67
56894;BME280;43392;50.078;13.704;2023-03-13T08:10:18;95994.72;;;8.15;85.44
56894;BME280;43392;50.078;13.704;2023-03-13T08:12:45;95994.16;;;8.18;85.08
56894;BME280;43392;50.078;13.704;2023-03-13T08:15:11;96005.84;;;8.22;85.14
56894;BME280;43392;50.078;13.704;2023-03-13T08:17:38;96007.44;;;8.28;84.88
56894;BME280;43392;50.078;13.704;2023-03-13T08:20:06;96002.81;;;8.34;84.80
56894;BME280;43392;50.078;13.704;2023-03-13T08:22:33;95991.72;;;8.45;84.72
56894;BME280;43392;50.078;13.704;2023-03-13T08:25:02;95986.56;;;8.54;84.34
56894;BME280;43392;50.078;13.704;2023-03-13T08:27:29;95971.53;;;8.58;83.97
56894;BME280;43392;50.078;13.704;2023-03-13T08:29:56;95960.84;;;8.58;83.74
56894;BME280;43392;50.078;13.704;2023-03-13T08:32:22;95958.69;;;8.60;83.88
56894;BME280;43392;50.078;13.704;2023-03-13T08:34:49;95957.84;;;8.64;84.26
56894;BME280;43392;50.078;13.704;2023-03-13T08:37:16;95935.94;;;8.62;84.23
56894;BME280;43392;50.078;13.704;2023-03-13T08:39:42;95937.53;;;8.63;84.41
56894;BME280;43392;50.078;13.704;2023-03-13T08:42:11;95943.69;;;8.64;84.52
56894;BME280;43392;50.078;13.704;2023-03-13T08:44:39;95942.56;;;8.65;84.49
56894;BME280;43392;50.078;13.704;2023-03-13T08:47:06;95971.22;;;8.64;84.42
56894;BME280;43392;50.078;13.704;2023-03-13T08:49:32;95958.34;;;8.66;84.44
56894;BME280;43392;50.078;13.704;2023-03-13T08:51:59;95974.03;;;8.73;84.80
56894;BME280;43392;50.078;13.704;2023-03-13T08:54:26;95967.06;;;8.72;84.99
56894;BME280;43392;50.078;13.704;2023-03-13T08:56:52;95967.06;;;8.72;84.87
56894;BME280;43392;50.078;13.704;2023-03-13T08:59:20;95980.22;;;8.68;85.33
56894;BME280;43392;50.078;13.704;2023-03-13T09:01:47;95986.88;;;8.71;85.39
56894;BME280;43392;50.078;13.704;2023-03-13T09:04:13;95981.19;;;8.78;85.14
56894;BME280;43392;50.078;13.704;2023-03-13T09:06:40;95978.72;;;8.81;85.35
56894;BME280;43392;50.078;13.704;2023-03-13T09:09:07;95965.63;;;8.80;85.58
56894;BME280;43392;50.078;13.704;2023-03-13T09:11:35;95965.25;;;8.91;85.61
56894;BME280;43392;50.078;13.704;2023-03-13T09:14:02;95964.72;;;9.08;85.24
56894;BME280;43392;50.078;13.704;2023-03-13T09:16:31;95951.41;;;9.21;85.15
56894;BME280;43392;50.078;13.704;2023-03-13T09:18:58;95944.81;;;9.32;84.68
56894;BME280;43392;50.078;13.704;2023-03-13T09:21:27;95944.88;;;9.46;84.31
56894;BME280;43392;50.078;13.704;2023-03-13T09:23:54;95947.31;;;9.61;83.95
56894;BME280;43392;50.078;13.704;2023-03-13T09:26:21;95954.28;;;9.76;83.53
56894;BME280;43392;50.078;13.704;2023-03-13T09:28:48;95936.03;;;9.78;83.32
56894;BME280;43392;50.078;13.704;2023-03-13T09:31:16;95936.03;;;9.91;83.26
56894;BME280;43392;50.078;13.704;2023-03-13T09:33:48;95930.09;;;9.94;83.07
56894;BME280;43392;50.078;13.704;2023-03-13T09:36:15;95931.19;;;9.93;83.05
56894;BME280;43392;50.078;13.704;2023-03-13T09:38:42;95926.94;;;9.92;83.27
56894;BME280;43392;50.078;13.704;2023-03-13T09:41:20;95929.31;;;9.94;83.15
56894;BME280;43392;50.078;13.704;2023-03-13T09:43:50;95917.78;;;9.93;83.23
56894;BME280;43392;50.078;13.704;2023-03-13T09:46:23;95916.81;;;9.89;83.17
56894;BME280;43392;50.078;13.704;2023-03-13T09:48:56;95897.66;;;9.82;83.34
56894;BME280;43392;50.078;13.704;2023-03-13T09:51:27;95911.44;;;9.76;83.83
56894;BME280;43392;50.078;13.704;2023-03-13T09:53:57;95911.13;;;9.64;83.99
56894;BME280;43392;50.078;13.704;2023-03-13T09:56:29;95915.34;;;9.51;84.40
56894;BME280;43392;50.078;13.704;2023-03-13T09:58:57;95910.16;;;9.41;84.76
56894;BME280;43392;50.078;13.704;2023-03-13T10:01:27;95914.09;;;9.30;85.28
56894;BME280;43392;50.078;13.704;2023-03-13T10:04:03;95922.31;;;9.33;85.25
56894;BME280;43392;50.078;13.704;2023-03-13T10:06:34;95930.50;;;9.42;85.31
56894;BME280;43392;50.078;13.704;2023-03-13T10:09:08;95927.06;;;9.55;84.87
56894;BME280;43392;50.078;13.704;2023-03-13T10:11:43;95913.81;;;9.64;84.78
56894;BME280;43392;50.078;13.704;2023-03-13T10:14:15;95920.44;;;9.66;84.40
56894;BME280;43392;50.078;13.704;2023-03-13T10:16:48;95922.50;;;9.69;84.31
56894;BME280;43392;50.078;13.704;2023-03-13T10:19:24;95917.06;;;9.74;84.36
56894;BME280;43392;50.078;13.704;2023-03-13T10:21:53;95913.50;;;9.79;84.41
56894;BME280;43392;50.078;13.704;2023-03-13T10:24:29;95913.41;;;9.84;84.23
56894;BME280;43392;50.078;13.704;2023-03-13T10:26:57;95915.03;;;9.85;84.04
56894;BME280;43392;50.078;13.704;2023-03-13T10:29:25;95927.31;;;9.86;83.98
56894;BME280;43392;50.078;13.704;2023-03-13T10:31:56;95924.25;;;9.92;83.85
56894;BME280;43392;50.078;13.704;2023-03-13T10:34:25;95927.03;;;10.01;83.82
56894;BME280;43392;50.078;13.704;2023-03-13T10:36:58;95925.38;;;10.05;83.10
56894;BME280;43392;50.078;13.704;2023-03-13T10:39:26;95926.84;;;10.11;83.19
56894;BME280;43392;50.078;13.704;2023-03-13T10:41:58;95918.91;;;10.20;83.14
56894;BME280;43392;50.078;13.704;2023-03-13T10:44:33;95920.91;;;10.28;82.90
56894;BME280;43392;50.078;13.704;2023-03-13T10:47:01;95906.25;;;10.39;82.82
56894;BME280;43392;50.078;13.704;2023-03-13T10:49:31;95903.63;;;10.47;82.47
56894;BME280;43392;50.078;13.704;2023-03-13T10:52:00;95916.63;;;10.54;82.37
56894;BME280;43392;50.078;13.704;2023-03-13T10:54:28;95906.09;;;10.57;82.10
56894;BME280;43392;50.078;13.704;2023-03-13T10:57:18;95915.63;;;10.63;82.13
56894;BME280;43392;50.078;13.704;2023-03-13T10:59:46;95909.38;;;10.68;81.88
56894;BME280;43392;50.078;13.704;2023-03-13T11:02:22;95876.50;;;10.62;81.97
56894;BME280;43392;50.078;13.704;2023-03-13T11:04:50;95897.50;;;10.83;81.94
56894;BME280;43392;50.078;13.704;2023-03-13T11:07:21;95880.91;;;10.94;81.77
56894;BME280;43392;50.078;13.704;2023-03-13T11:09:58;95880.50;;;11.09;81.35
56894;BME280;43392;50.078;13.704;2023-03-13T11:12:25;95868.91;;;11.14;81.10
56894;BME280;43392;50.078;13.704;2023-03-13T11:14:56;95861.81;;;11.18;80.86
56894;BME280;43392;50.078;13.704;2023-03-13T11:17:29;95862.91;;;11.17;80.74
56894;BME280;43392;50.078;13.704;2023-03-13T11:20:07;95871.13;;;11.20;81.08
56894;BME280;43392;50.078;13.704;2023-03-13T11:22:44;95860.56;;;11.24;80.93
56894;BME280;43392;50.078;13.704;2023-03-13T11:25:19;95871.31;;;11.24;81.01
56894;BME280;43392;50.078;13.704;2023-03-13T11:27:54;95871.13;;;11.20;81.01
56894;BME280;43392;50.078;13.704;2023-03-13T11:30:37;95871.97;;;11.07;81.53
56894;BME280;43392;50.078;13.704;2023-03-13T11:33:12;95895.06;;;10.95;81.79
56894;BME280;43392;50.078;13.704;2023-03-13T11:35:46;95913.00;;;10.86;82.31
56894;BME280;43392;50.078;13.704;2023-03-13T11:38:17;95911.53;;;10.80;82.89
56894;BME280;43392;50.078;13.704;2023-03-13T11:40:51;95907.84;;;10.76;83.12
56894;BME280;43392;50.078;13.704;2023-03-13T11:43:37;95920.75;;;10.74;82.87
56894;BME280;43392;50.078;13.704;2023-03-13T11:46:16;95912.34;;;10.66;83.30
56894;BME280;43392;50.078;13.704;2023-03-13T11:49:05;95921.06;;;10.72;83.35
56894;BME280;43392;50.078;13.704;2023-03-13T11:51:45;95918.19;;;10.68;83.34
56894;BME280;43392;50.078;13.704;2023-03-13T11:54:38;95922.25;;;10.66;83.56
56894;BME280;43392;50.078;13.704;2023-03-13T11:57:12;95921.97;;;10.68;83.61
56894;BME280;43392;50.078;13.704;2023-03-13T11:59:46;95921.19;;;10.67;83.67
56894;BME280;43392;50.078;13.704;2023-03-13T12:02:19;95927.13;;;10.64;83.68
56894;BME280;43392;50.078;13.704;2023-03-13T12:04:50;95921.06;;;10.58;83.71
56894;BME280;43392;50.078;13.704;2023-03-13T12:07:25;95910.88;;;10.60;83.88
56894;BME280;43392;50.078;13.704;2023-03-13T12:09:55;95906.09;;;10.57;83.87
56894;BME280;43392;50.078;13.704;2023-03-13T12:12:32;95898.38;;;10.56;83.99
56894;BME280;43392;50.078;13.704;2023-03-13T12:15:15;95902.13;;;10.55;84.04
56894;BME280;43392;50.078;13.704;2023-03-13T12:17:49;95910.50;;;10.53;84.01
56894;BME280;43392;50.078;13.704;2023-03-13T12:20:21;95897.38;;;10.52;84.12
56894;BME280;43392;50.078;13.704;2023-03-13T12:22:56;95897.38;;;10.52;84.10
56894;BME280;43392;50.078;13.704;2023-03-13T12:25:26;95898.16;;;10.52;84.26
56894;BME280;43392;50.078;13.704;2023-03-13T12:27:57;95902.72;;;10.52;84.17
56894;BME280;43392;50.078;13.704;2023-03-13T12:30:34;95897.38;;;10.52;84.33
56894;BME280;43392;50.078;13.704;2023-03-13T12:33:12;95890.44;;;10.51;84.32
56894;BME280;43392;50.078;13.704;2023-03-13T12:35:44;95882.88;;;10.53;83.97
56894;BME280;43392;50.078;13.704;2023-03-13T12:38:19;95881.00;;;10.53;84.19
56894;BME280;43392;50.078;13.704;2023-03-13T12:40:50;95889.22;;;10.57;83.82
56894;BME280;43392;50.078;13.704;2023-03-13T12:43:23;95890.81;;;10.58;84.11
56894;BME280;43392;50.078;13.704;2023-03-13T12:46:10;95889.44;;;10.60;84.04
56894;BME280;43392;50.078;13.704;2023-03-13T12:48:52;95887.25;;;10.62;83.87
56894;BME280;43392;50.078;13.704;2023-03-13T12:51:36;95880.00;;;10.63;83.67
56894;BME280;43392;50.078;13.704;2023-03-13T12:54:33;95863.00;;;10.68;83.72
56894;BME280;43392;50.078;13.704;2023-03-13T12:57:27;95856.72;;;10.72;83.93
56894;BME280;43392;50.078;13.704;2023-03-13T13:00:11;95854.72;;;10.78;83.86
56894;BME280;43392;50.078;13.704;2023-03-13T13:02:40;95872.28;;;10.84;83.73
56894;BME280;43392;50.078;13.704;2023-03-13T13:05:17;95866.47;;;10.90;83.62
56894;BME280;43392;50.078;13.704;2023-03-13T13:07:51;95865.56;;;10.95;83.31
56894;BME280;43392;50.078;13.704;2023-03-13T13:10:21;95855.34;;;10.97;83.61